sensor_id;sensor_type;location;lat;lon;timestamp;pressure;altitude;pressure_sealevel;temperature
76476;BMP280;65308;50.078;14.854;2023-02-01T00:04:00;98988.25;;;5.03
76476;BMP280;65308;50.078;14.854;2023-02-01T00:06:27;98985.94;;;5.05
76476;BMP280;65308;50.078;14.854;2023-02-01T00:08:55;98991.84;;;5.16
76476;BMP280;65308;50.078;14.854;2023-02-01T00:11:25;98979.09;;;5.31
76476;BMP280;65308;50.078;14.854;2023-02-01T00:13:53;98985.28;;;5.24
76476;BMP280;65308;50.078;14.854;2023-02-01T00:16:24;98976.63;;;5.20
76476;BMP280;65308;50.078;14.854;2023-02-01T00:18:57;98974.63;;;5.01
76476;BMP280;65308;50.078;14.854;2023-02-01T00:23:58;98989.19;;;5.16
76476;BMP280;65308;50.078;14.854;2023-02-01T00:26:30;98990.31;;;5.15
76476;BMP280;65308;50.078;14.854;2023-02-01T00:29:01;98985.16;;;5.08
76476;BMP280;65308;50.078;14.854;2023-02-01T00:31:36;98995.09;;;5.00
76476;BMP280;65308;50.078;14.854;2023-02-01T00:34:07;98998.09;;;5.02
76476;BMP280;65308;50.078;14.854;2023-02-01T00:36:35;98994.66;;;5.06
76476;BMP280;65308;50.078;14.854;2023-02-01T00:44:20;98988.44;;;4.89
76476;BMP280;65308;50.078;14.854;2023-02-01T00:46:46;98995.59;;;4.92
76476;BMP280;65308;50.078;14.854;2023-02-01T00:49:14;98983.28;;;5.05
76476;BMP280;65308;50.078;14.854;2023-02-01T00:51:44;98996.19;;;5.03
76476;BMP280;65308;50.078;14.854;2023-02-01T00:54:11;98985.34;;;4.94
76476;BMP280;65308;50.078;14.854;2023-02-01T00:56:41;98992.84;;;4.99
76476;BMP280;65308;50.078;14.854;2023-02-01T00:59:10;98991.25;;;5.05
76476;BMP280;65308;50.078;14.854;2023-02-01T01:01:39;98998.84;;;5.03
76476;BMP280;65308;50.078;14.854;2023-02-01T01:04:09;98987.97;;;4.97
76476;BMP280;65308;50.078;14.854;2023-02-01T01:06:36;98994.63;;;5.09
76476;BMP280;65308;50.078;14.854;2023-02-01T01:09:05;98994.25;;;5.07
76476;BMP280;65308;50.078;14.854;2023-02-01T01:11:34;98990.50;;;5.05
76476;BMP280;65308;50.078;14.854;2023-02-01T01:14:02;98992.59;;;4.90
76476;BMP280;65308;50.078;14.854;2023-02-01T01:16:30;98995.59;;;4.92
76476;BMP280;65308;50.078;14.854;2023-02-01T01:19:02;98995.97;;;4.94
76476;BMP280;65308;50.078;14.854;2023-02-01T01:21:30;98989.41;;;5.02
76476;BMP280;65308;50.078;14.854;2023-02-01T01:24:00;99000.69;;;5.06
76476;BMP280;65308;50.078;14.854;2023-02-01T01:26:28;99008.31;;;5.04
76476;BMP280;65308;50.078;14.854;2023-02-01T01:28:56;99014.22;;;4.88
76476;BMP280;65308;50.078;14.854;2023-02-01T01:31:24;99011.50;;;4.92
76476;BMP280;65308;50.078;14.854;2023-02-01T01:33:53;99019.81;;;4.94
76476;BMP280;65308;50.078;14.854;2023-02-01T01:36:22;99011.22;;;4.86
76476;BMP280;65308;50.078;14.854;2023-02-01T01:38:55;99020.28;;;4.89
76476;BMP280;65308;50.078;14.854;2023-02-01T01:41:24;99029.41;;;4.84
76476;BMP280;65308;50.078;14.854;2023-02-01T01:43:54;99011.25;;;4.83
76476;BMP280;65308;50.078;14.854;2023-02-01T01:46:26;99006.97;;;4.92
76476;BMP280;65308;50.078;14.854;2023-02-01T01:48:59;99010.22;;;5.03
76476;BMP280;65308;50.078;14.854;2023-02-01T01:54:03;98993.94;;;5.01
76476;BMP280;65308;50.078;14.854;2023-02-01T01:56:32;99006.53;;;4.97
76476;BMP280;65308;50.078;14.854;2023-02-01T01:59:01;98999.66;;;5.00
76476;BMP280;65308;50.078;14.854;2023-02-01T02:01:29;99000.47;;;4.97
76476;BMP280;65308;50.078;14.854;2023-02-01T02:03:58;99003.16;;;4.93
76476;BMP280;65308;50.078;14.854;2023-02-01T02:06:39;98991.41;;;4.94
76476;BMP280;65308;50.078;14.854;2023-02-01T02:09:10;98999.72;;;4.96
76476;BMP280;65308;50.078;14.854;2023-02-01T02:11:37;99010.25;;;5.00
76476;BMP280;65308;50.078;14.854;2023-02-01T02:14:04;99012.84;;;5.07
76476;BMP280;65308;50.078;14.854;2023-02-01T02:28:30;99025.22;;;5.14
76476;BMP280;65308;50.078;14.854;2023-02-01T02:31:19;99009.38;;;5.10
76476;BMP280;65308;50.078;14.854;2023-02-01T02:34:01;99028.19;;;5.19
76476;BMP280;65308;50.078;14.854;2023-02-01T02:36:37;99025.94;;;5.18
76476;BMP280;65308;50.078;14.854;2023-02-01T02:39:07;99021.06;;;5.13
76476;BMP280;65308;50.078;14.854;2023-02-01T02:41:42;99020.72;;;5.11
76476;BMP280;65308;50.078;14.854;2023-02-01T02:44:34;99018.31;;;5.20
76476;BMP280;65308;50.078;14.854;2023-02-01T02:47:24;99011.97;;;5.14
76476;BMP280;65308;50.078;14.854;2023-02-01T02:50:00;99022.06;;;5.22
76476;BMP280;65308;50.078;14.854;2023-02-01T02:52:51;99023.69;;;5.16
76476;BMP280;65308;50.078;14.854;2023-02-01T02:55:37;99015.94;;;5.02
76476;BMP280;65308;50.078;14.854;2023-02-01T02:58:07;99023.63;;;4.93
76476;BMP280;65308;50.078;14.854;2023-02-01T03:00:53;99020.06;;;5.03
76476;BMP280;65308;50.078;14.854;2023-02-01T03:03:37;99019.31;;;5.02
76476;BMP280;65308;50.078;14.854;2023-02-01T03:06:25;99009.22;;;4.94
76476;BMP280;65308;50.078;14.854;2023-02-01T03:08:55;99010.31;;;4.96
76476;BMP280;65308;50.078;14.854;2023-02-01T03:11:24;99007.28;;;4.98
76476;BMP280;65308;50.078;14.854;2023-02-01T03:14:14;98994.28;;;5.03
76476;BMP280;65308;50.078;14.854;2023-02-01T03:16:44;98998.91;;;4.99
76476;BMP280;65308;50.078;14.854;2023-02-01T03:19:16;98996.19;;;5.03
76476;BMP280;65308;50.078;14.854;2023-02-01T03:21:49;98984.00;;;5.09
76476;BMP280;65308;50.078;14.854;2023-02-01T03:24:20;98974.94;;;5.07
76476;BMP280;65308;50.078;14.854;2023-02-01T03:26:51;98989.16;;;4.93
76476;BMP280;65308;50.078;14.854;2023-02-01T03:29:25;98997.19;;;4.86
76476;BMP280;65308;50.078;14.854;2023-02-01T03:31:53;98976.13;;;4.75
76476;BMP280;65308;50.078;14.854;2023-02-01T03:34:21;98960.66;;;4.70
76476;BMP280;65308;50.078;14.854;2023-02-01T03:36:58;98968.97;;;4.72
76476;BMP280;65308;50.078;14.854;2023-02-01T03:39:31;98981.31;;;4.55
76476;BMP280;65308;50.078;14.854;2023-02-01T03:42:09;98965.97;;;4.39
76476;BMP280;65308;50.078;14.854;2023-02-01T03:44:45;98973.09;;;4.46
76476;BMP280;65308;50.078;14.854;2023-02-01T03:47:15;98970.44;;;4.46
76476;BMP280;65308;50.078;14.854;2023-02-01T03:49:48;98973.13;;;4.42
76476;BMP280;65308;50.078;14.854;2023-02-01T03:52:21;98977.59;;;4.49
76476;BMP280;65308;50.078;14.854;2023-02-01T03:54:51;98970.44;;;4.46
76476;BMP280;65308;50.078;14.854;2023-02-01T03:57:25;98970.69;;;4.55
76476;BMP280;65308;50.078;14.854;2023-02-01T04:00:09;98973.31;;;4.58
76476;BMP280;65308;50.078;14.854;2023-02-01T04:02:37;98977.84;;;4.58
76476;BMP280;65308;50.078;14.854;2023-02-01T04:05:04;98980.03;;;4.67
76476;BMP280;65308;50.078;14.854;2023-02-01T04:12:38;98971.94;;;4.77
76476;BMP280;65308;50.078;14.854;2023-02-01T04:15:10;98974.56;;;4.77
76476;BMP280;65308;50.078;14.854;2023-02-01T04:17:37;98970.06;;;4.74
76476;BMP280;65308;50.078;14.854;2023-02-01T04:20:09;98977.59;;;4.79
76476;BMP280;65308;50.078;14.854;2023-02-01T04:22:36;98977.28;;;4.74
76476;BMP280;65308;50.078;14.854;2023-02-01T04:25:03;98981.41;;;4.78
76476;BMP280;65308;50.078;14.854;2023-02-01T04:27:31;98974.41;;;4.61
76476;BMP280;65308;50.078;14.854;2023-02-01T04:29:59;98972.47;;;4.65
76476;BMP280;65308;50.078;14.854;2023-02-01T04:32:27;98972.91;;;4.60
76476;BMP280;65308;50.078;14.854;2023-02-01T04:34:56;98975.38;;;4.44
76476;BMP280;65308;50.078;14.854;2023-02-01T04:37:22;98975.38;;;4.47
76476;BMP280;65308;50.078;14.854;2023-02-01T04:39:50;98976.53;;;4.43
76476;BMP280;65308;50.078;14.854;2023-02-01T04:42:19;98977.66;;;4.45
76476;BMP280;65308;50.078;14.854;2023-02-01T04:44:47;98981.03;;;4.46
76476;BMP280;65308;50.078;14.854;2023-02-01T04:47:15;98967.06;;;4.42
76476;BMP280;65308;50.078;14.854;2023-02-01T04:49:43;98967.13;;;4.38
76476;BMP280;65308;50.078;14.854;2023-02-01T04:52:12;98963.28;;;4.43
76476;BMP280;65308;50.078;14.854;2023-02-01T04:54:39;98962.66;;;4.62
76476;BMP280;65308;50.078;14.854;2023-02-01T04:57:08;98954.34;;;4.60
76476;BMP280;65308;50.078;14.854;2023-02-01T04:59:35;98953.56;;;4.63
76476;BMP280;65308;50.078;14.854;2023-02-01T05:02:05;98931.22;;;4.64
76476;BMP280;65308;50.078;14.854;2023-02-01T05:07:15;98918.06;;;4.57
76476;BMP280;65308;50.078;14.854;2023-02-01T05:09:47;98919.66;;;4.51
76476;BMP280;65308;50.078;14.854;2023-02-01T05:12:16;98916.69;;;4.45
76476;BMP280;65308;50.078;14.854;2023-02-01T05:15:00;98920.09;;;4.46
76476;BMP280;65308;50.078;14.854;2023-02-01T05:17:29;98907.75;;;4.35
76476;BMP280;65308;50.078;14.854;2023-02-01T05:20:00;98904.56;;;4.44
76476;BMP280;65308;50.078;14.854;2023-02-01T05:22:28;98905.19;;;4.28
76476;BMP280;65308;50.078;14.854;2023-02-01T05:24:55;98907.94;;;4.48
76476;BMP280;65308;50.078;14.854;2023-02-01T05:27:24;98904.94;;;4.46
76476;BMP280;65308;50.078;14.854;2023-02-01T05:29:53;98916.63;;;4.49
76476;BMP280;65308;50.078;14.854;2023-02-01T05:32:23;98919.81;;;4.67
76476;BMP280;65308;50.078;14.854;2023-02-01T05:35:05;98919.63;;;4.78
76476;BMP280;65308;50.078;14.854;2023-02-01T05:37:40;98904.66;;;4.68
76476;BMP280;65308;50.078;14.854;2023-02-01T05:40:09;98909.91;;;4.71
76476;BMP280;65308;50.078;14.854;2023-02-01T05:42:36;98905.41;;;4.68
76476;BMP280;65308;50.078;14.854;2023-02-01T05:45:03;98904.50;;;4.78
76476;BMP280;65308;50.078;14.854;2023-02-01T05:47:33;98907.72;;;4.66
76476;BMP280;65308;50.078;14.854;2023-02-01T05:50:04;98896.75;;;4.64
76476;BMP280;65308;50.078;14.854;2023-02-01T05:52:31;98902.88;;;4.57
76476;BMP280;65308;50.078;14.854;2023-02-01T05:55:00;98890.91;;;4.73
76476;BMP280;65308;50.078;14.854;2023-02-01T05:57:27;98888.13;;;4.56
76476;BMP280;65308;50.078;14.854;2023-02-01T06:00:05;98890.88;;;4.49
76476;BMP280;65308;50.078;14.854;2023-02-01T06:02:32;98893.75;;;4.62
76476;BMP280;65308;50.078;14.854;2023-02-01T06:05:00;98891.84;;;4.63
76476;BMP280;65308;50.078;14.854;2023-02-01T06:07:27;98890.16;;;4.76
76476;BMP280;65308;50.078;14.854;2023-02-01T06:09:55;98874.03;;;4.63
76476;BMP280;65308;50.078;14.854;2023-02-01T06:12:29;98886.50;;;4.66
76476;BMP280;65308;50.078;14.854;2023-02-01T06:14:59;98879.69;;;4.65
76476;BMP280;65308;50.078;14.854;2023-02-01T06:17:28;98871.47;;;4.56
76476;BMP280;65308;50.078;14.854;2023-02-01T06:19:56;98877.63;;;4.49
76476;BMP280;65308;50.078;14.854;2023-02-01T06:22:26;98876.78;;;4.56
76476;BMP280;65308;50.078;14.854;2023-02-01T06:24:53;98876.97;;;4.42
76476;BMP280;65308;50.078;14.854;2023-02-01T06:27:21;98879.25;;;4.40
76476;BMP280;65308;50.078;14.854;2023-02-01T06:30:00;98872.34;;;4.49
76476;BMP280;65308;50.078;14.854;2023-02-01T06:32:27;98873.19;;;4.43
76476;BMP280;65308;50.078;14.854;2023-02-01T06:34:54;98869.38;;;4.44
76476;BMP280;65308;50.078;14.854;2023-02-01T06:37:21;98873.53;;;4.45
76476;BMP280;65308;50.078;14.854;2023-02-01T06:39:54;98857.59;;;4.48
76476;BMP280;65308;50.078;14.854;2023-02-01T06:42:21;98873.69;;;4.61
76476;BMP280;65308;50.078;14.854;2023-02-01T06:44:48;98862.69;;;4.63
76476;BMP280;65308;50.078;14.854;2023-02-01T06:47:18;98851.00;;;4.56
76476;BMP280;65308;50.078;14.854;2023-02-01T06:49:45;98866.50;;;4.62
76476;BMP280;65308;50.078;14.854;2023-02-01T06:52:14;98863.84;;;4.62
76476;BMP280;65308;50.078;14.854;2023-02-01T06:54:41;98856.66;;;4.58
76476;BMP280;65308;50.078;14.854;2023-02-01T06:57:08;98846.81;;;4.59
76476;BMP280;65308;50.078;14.854;2023-02-01T06:59:36;98829.03;;;4.60
76476;BMP280;65308;50.078;14.854;2023-02-01T07:07:11;98834.16;;;4.70
76476;BMP280;65308;50.078;14.854;2023-02-01T07:09:41;98839.56;;;4.87
76476;BMP280;65308;50.078;14.854;2023-02-01T07:12:13;98823.31;;;4.85
76476;BMP280;65308;50.078;14.854;2023-02-01T07:14:44;98857.22;;;4.97
76476;BMP280;65308;50.078;14.854;2023-02-01T07:17:11;98861.84;;;5.16
76476;BMP280;65308;50.078;14.854;2023-02-01T07:19:38;98858.63;;;5.48
76476;BMP280;65308;50.078;14.854;2023-02-01T07:22:04;98858.28;;;5.66
76476;BMP280;65308;50.078;14.854;2023-02-01T07:24:33;98861.94;;;5.92
76476;BMP280;65308;50.078;14.854;2023-02-01T07:29:35;98877.06;;;6.32
76476;BMP280;65308;50.078;14.854;2023-02-01T07:32:02;98865.31;;;6.29
76476;BMP280;65308;50.078;14.854;2023-02-01T07:34:29;98853.97;;;6.45
76476;BMP280;65308;50.078;14.854;2023-02-01T07:36:56;98869.97;;;6.61
76476;BMP280;65308;50.078;14.854;2023-02-01T07:39:27;98871.28;;;6.53
76476;BMP280;65308;50.078;14.854;2023-02-01T07:41:58;98867.38;;;6.74
76476;BMP280;65308;50.078;14.854;2023-02-01T07:44:26;98865.16;;;6.73
76476;BMP280;65308;50.078;14.854;2023-02-01T07:46:53;98869.63;;;6.59
76476;BMP280;65308;50.078;14.854;2023-02-01T07:49:22;98870.28;;;6.47
76476;BMP280;65308;50.078;14.854;2023-02-01T07:51:53;98851.72;;;6.44
76476;BMP280;65308;50.078;14.854;2023-02-01T07:54:22;98863.91;;;6.25
76476;BMP280;65308;50.078;14.854;2023-02-01T07:56:52;98852.44;;;6.11
76476;BMP280;65308;50.078;14.854;2023-02-01T08:02:14;98854.72;;;5.93
76476;BMP280;65308;50.078;14.854;2023-02-01T08:04:41;98844.53;;;6.08
76476;BMP280;65308;50.078;14.854;2023-02-01T08:07:11;98853.69;;;6.07
76476;BMP280;65308;50.078;14.854;2023-02-01T08:09:40;98846.69;;;5.97
76476;BMP280;65308;50.078;14.854;2023-02-01T08:12:07;98842.66;;;6.08
76476;BMP280;65308;50.078;14.854;2023-02-01T08:14:35;98836.22;;;6.06
76476;BMP280;65308;50.078;14.854;2023-02-01T08:17:03;98848.44;;;6.03
76476;BMP280;65308;50.078;14.854;2023-02-01T08:24:32;98845.44;;;6.01
76476;BMP280;65308;50.078;14.854;2023-02-01T08:27:04;98833.28;;;6.04
76476;BMP280;65308;50.078;14.854;2023-02-01T08:29:32;98835.00;;;6.10
76476;BMP280;65308;50.078;14.854;2023-02-01T08:32:00;98837.81;;;6.03
76476;BMP280;65308;50.078;14.854;2023-02-01T08:34:31;98838.47;;;6.07
76476;BMP280;65308;50.078;14.854;2023-02-01T08:37:01;98833.16;;;6.07
76476;BMP280;65308;50.078;14.854;2023-02-01T08:39:28;98832.88;;;6.22
76476;BMP280;65308;50.078;14.854;2023-02-01T08:41:57;98824.50;;;6.23
76476;BMP280;65308;50.078;14.854;2023-02-01T08:52:16;98825.13;;;6.11
76476;BMP280;65308;50.078;14.854;2023-02-01T08:54:47;98815.44;;;6.21
76476;BMP280;65308;50.078;14.854;2023-02-01T09:12:22;98820.66;;;6.40
76476;BMP280;65308;50.078;14.854;2023-02-01T09:17:32;98827.34;;;6.49
76476;BMP280;65308;50.078;14.854;2023-02-01T09:25:14;98813.53;;;6.70
76476;BMP280;65308;50.078;14.854;2023-02-01T09:35:43;98811.94;;;6.73
76476;BMP280;65308;50.078;14.854;2023-02-01T09:40:53;98813.44;;;6.57
76476;BMP280;65308;50.078;14.854;2023-02-01T09:43:37;98816.84;;;6.58
76476;BMP280;65308;50.078;14.854;2023-02-01T09:46:30;98811.34;;;6.65
76476;BMP280;65308;50.078;14.854;2023-02-01T09:54:19;98805.63;;;6.67
76476;BMP280;65308;50.078;14.854;2023-02-01T10:02:21;98792.78;;;6.49
76476;BMP280;65308;50.078;14.854;2023-02-01T10:04:55;98793.41;;;6.36
76476;BMP280;65308;50.078;14.854;2023-02-01T12:11:19;98771.16;;;6.30
76476;BMP280;65308;50.078;14.854;2023-02-01T12:14:02;98762.34;;;6.17
76476;BMP280;65308;50.078;14.854;2023-02-01T12:16:40;98753.28;;;6.31
76476;BMP280;65308;50.078;14.854;2023-02-01T12:19:36;98758.78;;;6.40
76476;BMP280;65308;50.078;14.854;2023-02-01T12:22:18;98771.06;;;6.34
76476;BMP280;65308;50.078;14.854;2023-02-01T12:25:01;98762.53;;;6.26
76476;BMP280;65308;50.078;14.854;2023-02-01T12:30:41;98764.81;;;6.73
76476;BMP280;65308;50.078;14.854;2023-02-01T12:33:17;98750.22;;;6.94
76476;BMP280;65308;50.078;14.854;2023-02-01T12:35:58;98753.78;;;7.17
76476;BMP280;65308;50.078;14.854;2023-02-01T12:38:37;98757.44;;;7.36
76476;BMP280;65308;50.078;14.854;2023-02-01T12:41:21;98749.78;;;7.50
76476;BMP280;65308;50.078;14.854;2023-02-01T12:43:55;98751.72;;;7.63
76476;BMP280;65308;50.078;14.854;2023-02-01T12:46:30;98756.09;;;7.82
76476;BMP280;65308;50.078;14.854;2023-02-01T12:49:06;98747.88;;;7.89
76476;BMP280;65308;50.078;14.854;2023-02-01T12:51:39;98743.84;;;7.72
76476;BMP280;65308;50.078;14.854;2023-02-01T12:54:15;98751.19;;;7.68
76476;BMP280;65308;50.078;14.854;2023-02-01T12:57:00;98753.41;;;7.69
76476;BMP280;65308;50.078;14.854;2023-02-01T12:59:33;98742.84;;;7.40
76476;BMP280;65308;50.078;14.854;2023-02-01T13:07:09;98752.34;;;7.41
76476;BMP280;65308;50.078;14.854;2023-02-01T13:09:43;98754.50;;;7.46
76476;BMP280;65308;50.078;14.854;2023-02-01T13:12:19;98753.97;;;7.39
76476;BMP280;65308;50.078;14.854;2023-02-01T13:14:54;98758.16;;;7.23
76476;BMP280;65308;50.078;14.854;2023-02-01T13:17:25;98753.63;;;7.07
76476;BMP280;65308;50.078;14.854;2023-02-01T13:19:57;98757.81;;;7.21
76476;BMP280;65308;50.078;14.854;2023-02-01T13:25:03;98748.75;;;7.06
76476;BMP280;65308;50.078;14.854;2023-02-01T13:27:32;98762.16;;;7.02
76476;BMP280;65308;50.078;14.854;2023-02-01T13:38:35;98774.53;;;7.22
76476;BMP280;65308;50.078;14.854;2023-02-01T13:41:20;98773.84;;;7.34
76476;BMP280;65308;50.078;14.854;2023-02-01T13:43:54;98768.88;;;7.49
76476;BMP280;65308;50.078;14.854;2023-02-01T13:46:25;98759.06;;;7.71
76476;BMP280;65308;50.078;14.854;2023-02-01T13:51:34;98757.78;;;7.76
76476;BMP280;65308;50.078;14.854;2023-02-01T13:54:06;98755.66;;;7.84
76476;BMP280;65308;50.078;14.854;2023-02-01T14:05:09;98750.00;;;7.94
76476;BMP280;65308;50.078;14.854;2023-02-01T14:08:09;98742.97;;;8.00
76476;BMP280;65308;50.078;14.854;2023-02-01T14:10:52;98738.16;;;8.08
76476;BMP280;65308;50.078;14.854;2023-02-01T14:16:19;98732.38;;;8.22
76476;BMP280;65308;50.078;14.854;2023-02-01T14:18:59;98738.47;;;8.10
76476;BMP280;65308;50.078;14.854;2023-02-01T14:32:00;98749.47;;;7.61
76476;BMP280;65308;50.078;14.854;2023-02-01T14:37:02;98744.34;;;7.54
76476;BMP280;65308;50.078;14.854;2023-02-01T14:39:50;98759.19;;;7.68
76476;BMP280;65308;50.078;14.854;2023-02-01T14:45:52;98763.84;;;7.64
76476;BMP280;65308;50.078;14.854;2023-02-01T14:51:16;98750.31;;;7.45
76476;BMP280;65308;50.078;14.854;2023-02-01T14:53:45;98739.88;;;7.38
76476;BMP280;65308;50.078;14.854;2023-02-01T14:56:16;98754.66;;;7.26
76476;BMP280;65308;50.078;14.854;2023-02-01T14:58:51;98742.28;;;7.20
76476;BMP280;65308;50.078;14.854;2023-02-01T15:01:21;98744.94;;;7.20
76476;BMP280;65308;50.078;14.854;2023-02-01T15:04:01;98759.94;;;7.14
76476;BMP280;65308;50.078;14.854;2023-02-01T15:14:14;98750.00;;;7.01
76476;BMP280;65308;50.078;14.854;2023-02-01T15:16:45;98748.75;;;7.19
76476;BMP280;65308;50.078;14.854;2023-02-01T15:19:14;98749.72;;;7.12
76476;BMP280;65308;50.078;14.854;2023-02-01T15:21:46;98747.22;;;6.92
76476;BMP280;65308;50.078;14.854;2023-02-01T15:24:20;98754.66;;;6.97
76476;BMP280;65308;50.078;14.854;2023-02-01T15:34:48;98750.50;;;6.67
76476;BMP280;65308;50.078;14.854;2023-02-01T15:42:34;98746.41;;;6.79
76476;BMP280;65308;50.078;14.854;2023-02-01T15:45:16;98746.22;;;6.86
76476;BMP280;65308;50.078;14.854;2023-02-01T15:47:50;98747.88;;;6.96
76476;BMP280;65308;50.078;14.854;2023-02-01T15:50:21;98746.09;;;7.06
76476;BMP280;65308;50.078;14.854;2023-02-01T15:52:52;98743.66;;;7.12
76476;BMP280;65308;50.078;14.854;2023-02-01T15:55:26;98741.53;;;7.19
76476;BMP280;65308;50.078;14.854;2023-02-01T15:58:00;98752.22;;;7.32
76476;BMP280;65308;50.078;14.854;2023-02-01T16:00:39;98750.28;;;7.33
76476;BMP280;65308;50.078;14.854;2023-02-01T16:03:25;98734.31;;;7.33
76476;BMP280;65308;50.078;14.854;2023-02-01T16:05:59;98736.66;;;7.43
76476;BMP280;65308;50.078;14.854;2023-02-01T16:08:27;98736.78;;;7.52
76476;BMP280;65308;50.078;14.854;2023-02-01T16:11:01;98732.44;;;7.46
76476;BMP280;65308;50.078;14.854;2023-02-01T16:13:41;98730.41;;;7.37
76476;BMP280;65308;50.078;14.854;2023-02-01T16:18:40;98736.19;;;7.48
76476;BMP280;65308;50.078;14.854;2023-02-01T16:21:12;98738.19;;;7.44
76476;BMP280;65308;50.078;14.854;2023-02-01T16:23:43;98735.09;;;7.46
76476;BMP280;65308;50.078;14.854;2023-02-01T16:26:12;98739.16;;;7.63
76476;BMP280;65308;50.078;14.854;2023-02-01T16:28:43;98743.94;;;7.56
76476;BMP280;65308;50.078;14.854;2023-02-01T16:31:14;98747.69;;;7.84
76476;BMP280;65308;50.078;14.854;2023-02-01T16:33:46;98738.00;;;7.77
76476;BMP280;65308;50.078;14.854;2023-02-01T16:36:17;98728.72;;;7.69
76476;BMP280;65308;50.078;14.854;2023-02-01T16:38:47;98720.81;;;7.27
76476;BMP280;65308;50.078;14.854;2023-02-01T16:41:18;98720.53;;;7.08
76476;BMP280;65308;50.078;14.854;2023-02-01T16:46:21;98709.28;;;6.75
76476;BMP280;65308;50.078;14.854;2023-02-01T16:48:53;98707.34;;;6.76
76476;BMP280;65308;50.078;14.854;2023-02-01T16:51:23;98711.69;;;6.70
76476;BMP280;65308;50.078;14.854;2023-02-01T16:53:50;98701.16;;;6.37
76476;BMP280;65308;50.078;14.854;2023-02-01T16:56:20;98714.78;;;6.23
76476;BMP280;65308;50.078;14.854;2023-02-01T16:58:50;98706.19;;;6.31
76476;BMP280;65308;50.078;14.854;2023-02-01T17:01:23;98690.59;;;6.33
76476;BMP280;65308;50.078;14.854;2023-02-01T17:03:51;98700.81;;;6.35
76476;BMP280;65308;50.078;14.854;2023-02-01T17:11:25;98691.19;;;6.08
76476;BMP280;65308;50.078;14.854;2023-02-01T17:13:56;98676.34;;;6.11
76476;BMP280;65308;50.078;14.854;2023-02-01T17:16:30;98679.75;;;6.11
76476;BMP280;65308;50.078;14.854;2023-02-01T17:19:03;98677.44;;;6.13
76476;BMP280;65308;50.078;14.854;2023-02-01T17:21:39;98683.19;;;6.25
76476;BMP280;65308;50.078;14.854;2023-02-01T17:24:11;98678.22;;;6.10
76476;BMP280;65308;50.078;14.854;2023-02-01T17:26:41;98668.34;;;6.27
76476;BMP280;65308;50.078;14.854;2023-02-01T17:29:09;98648.03;;;6.04
76476;BMP280;65308;50.078;14.854;2023-02-01T17:31:38;98646.28;;;6.14
76476;BMP280;65308;50.078;14.854;2023-02-01T17:34:11;98635.91;;;6.03
76476;BMP280;65308;50.078;14.854;2023-02-01T17:36:41;98637.81;;;6.03
76476;BMP280;65308;50.078;14.854;2023-02-01T17:39:13;98628.09;;;5.96
76476;BMP280;65308;50.078;14.854;2023-02-01T17:41:46;98617.59;;;5.76
76476;BMP280;65308;50.078;14.854;2023-02-01T17:44:15;98623.03;;;5.69
76476;BMP280;65308;50.078;14.854;2023-02-01T17:46:43;98629.75;;;5.57
76476;BMP280;65308;50.078;14.854;2023-02-01T17:49:16;98614.84;;;5.63
76476;BMP280;65308;50.078;14.854;2023-02-01T17:51:47;98623.03;;;5.69
76476;BMP280;65308;50.078;14.854;2023-02-01T17:54:18;98617.91;;;5.62
76476;BMP280;65308;50.078;14.854;2023-02-01T17:56:57;98609.22;;;5.61
76476;BMP280;65308;50.078;14.854;2023-02-01T17:59:28;98611.94;;;5.58
76476;BMP280;65308;50.078;14.854;2023-02-01T18:01:57;98603.47;;;5.63
76476;BMP280;65308;50.078;14.854;2023-02-01T18:06:58;98605.44;;;5.42
76476;BMP280;65308;50.078;14.854;2023-02-01T18:57:56;98743.50;;;0.67
76476;BMP280;65308;50.078;14.854;2023-02-01T19:00:23;98735.97;;;0.72
76476;BMP280;65308;50.078;14.854;2023-02-01T19:02:49;98714.91;;;0.65
76476;BMP280;65308;50.078;14.854;2023-02-01T19:05:17;98711.16;;;0.70
76476;BMP280;65308;50.078;14.854;2023-02-01T19:07:45;98684.03;;;0.87
76476;BMP280;65308;50.078;14.854;2023-02-01T19:10:14;98697.19;;;1.05
76476;BMP280;65308;50.078;14.854;2023-02-01T19:12:41;98682.50;;;1.18
76476;BMP280;65308;50.078;14.854;2023-02-01T19:15:12;98688.84;;;1.28
76476;BMP280;65308;50.078;14.854;2023-02-01T19:17:41;98699.00;;;1.37
76476;BMP280;65308;50.078;14.854;2023-02-01T19:20:10;98701.94;;;1.53
76476;BMP280;65308;50.078;14.854;2023-02-01T19:22:37;98690.28;;;1.54
76476;BMP280;65308;50.078;14.854;2023-02-01T19:25:05;98690.97;;;1.65
76476;BMP280;65308;50.078;14.854;2023-02-01T19:27:32;98693.94;;;1.78
76476;BMP280;65308;50.078;14.854;2023-02-01T19:29:59;98687.44;;;1.90
76476;BMP280;65308;50.078;14.854;2023-02-01T19:32:27;98691.53;;;1.98
76476;BMP280;65308;50.078;14.854;2023-02-01T19:34:54;98697.97;;;2.01
76476;BMP280;65308;50.078;14.854;2023-02-01T19:37:21;98697.19;;;2.00
76476;BMP280;65308;50.078;14.854;2023-02-01T19:39:47;98692.69;;;1.93
76476;BMP280;65308;50.078;14.854;2023-02-01T19:42:14;98715.28;;;1.98
76476;BMP280;65308;50.078;14.854;2023-02-01T19:44:41;98710.00;;;2.02
76476;BMP280;65308;50.078;14.854;2023-02-01T19:47:08;98710.72;;;2.09
76476;BMP280;65308;50.078;14.854;2023-02-01T19:49:36;98702.03;;;2.12
76476;BMP280;65308;50.078;14.854;2023-02-01T19:52:04;98686.56;;;2.14
76476;BMP280;65308;50.078;14.854;2023-02-01T19:54:31;98690.34;;;2.13
76476;BMP280;65308;50.078;14.854;2023-02-01T19:56:57;98685.00;;;2.21
76476;BMP280;65308;50.078;14.854;2023-02-01T19:59:24;98689.22;;;2.07
76476;BMP280;65308;50.078;14.854;2023-02-01T20:01:51;98698.53;;;2.26
76476;BMP280;65308;50.078;14.854;2023-02-01T20:04:21;98702.69;;;2.27
76476;BMP280;65308;50.078;14.854;2023-02-01T20:06:49;98705.66;;;2.33
76476;BMP280;65308;50.078;14.854;2023-02-01T20:09:21;98712.34;;;2.45
76476;BMP280;65308;50.078;14.854;2023-02-01T20:11:48;98711.97;;;2.46
76476;BMP280;65308;50.078;14.854;2023-02-01T20:14:19;98716.94;;;2.41
76476;BMP280;65308;50.078;14.854;2023-02-01T20:16:46;98711.28;;;2.39
76476;BMP280;65308;50.078;14.854;2023-02-01T20:19:13;98722.13;;;2.51
76476;BMP280;65308;50.078;14.854;2023-02-01T20:21:41;98732.00;;;2.44
76476;BMP280;65308;50.078;14.854;2023-02-01T20:24:12;98726.75;;;2.40
76476;BMP280;65308;50.078;14.854;2023-02-01T20:26:40;98736.13;;;2.45
76476;BMP280;65308;50.078;14.854;2023-02-01T20:29:09;98742.88;;;2.49
76476;BMP280;65308;50.078;14.854;2023-02-01T20:31:35;98741.41;;;2.48